createdAt,value
2023-03-16T00:01:12.482Z,69.30
2023-03-16T00:03:39.703Z,69.40
2023-03-16T00:06:07.221Z,69.40
2023-03-16T00:08:35.547Z,69.50
2023-03-16T00:11:04.213Z,69.60
2023-03-16T00:13:32.552Z,69.50
2023-03-16T00:16:02.551Z,69.70
2023-03-16T00:18:30.424Z,69.70
2023-03-16T00:20:59.275Z,69.60
2023-03-16T00:23:29.711Z,69.90
2023-03-16T00:26:02.965Z,70.00
2023-03-16T00:28:35.149Z,69.50
2023-03-16T00:31:03.251Z,69.60
2023-03-16T00:33:34.696Z,70.00
2023-03-16T00:36:03.922Z,70.20
2023-03-16T00:38:34.585Z,70.20
2023-03-16T00:41:04.058Z,70.30
2023-03-16T00:43:40.660Z,70.20
2023-03-16T00:46:10.172Z,70.10
2023-03-16T00:48:38.966Z,69.90
2023-03-16T00:51:08.822Z,70.10
2023-03-16T00:53:36.861Z,70.30
2023-03-16T00:56:04.941Z,70.20
2023-03-16T00:58:35.843Z,70.10
2023-03-16T01:01:03.930Z,70.00
2023-03-16T01:03:31.302Z,70.00
2023-03-16T01:06:00.043Z,70.00
2023-03-16T01:08:30.272Z,70.00
2023-03-16T01:11:01.725Z,70.30
2023-03-16T01:13:29.105Z,70.50
2023-03-16T01:15:57.791Z,70.40
2023-03-16T01:18:25.205Z,70.00
2023-03-16T01:20:53.389Z,69.80
2023-03-16T01:23:21.410Z,69.80
2023-03-16T01:25:53.076Z,69.90
2023-03-16T01:28:21.618Z,70.00
2023-03-16T01:30:48.897Z,70.00
2023-03-16T01:33:17.572Z,69.80
2023-03-16T01:35:52.313Z,70.00
2023-03-16T01:38:19.682Z,70.20
2023-03-16T01:40:50.806Z,70.20
2023-03-16T01:43:19.619Z,69.90
2023-03-16T01:46:20.399Z,69.80
2023-03-16T01:48:56.041Z,69.90
2023-03-16T01:51:31.516Z,69.90
2023-03-16T01:54:04.387Z,69.90
2023-03-16T01:56:35.856Z,69.90
2023-03-16T01:59:09.135Z,69.80
2023-03-16T02:01:36.660Z,69.90
2023-03-16T02:04:17.875Z,69.90
2023-03-16T02:06:47.287Z,69.50
2023-03-16T02:09:16.346Z,69.80
2023-03-16T02:11:43.721Z,69.90
2023-03-16T02:14:14.152Z,70.00
2023-03-16T02:16:42.720Z,69.80
2023-03-16T02:19:16.946Z,69.90
2023-03-16T02:21:54.350Z,70.00
2023-03-16T02:24:22.006Z,69.70
2023-03-16T02:26:53.524Z,69.90
2023-03-16T02:29:41.799Z,70.00
2023-03-16T02:32:10.079Z,70.10
2023-03-16T02:34:38.710Z,70.00
2023-03-16T02:37:07.124Z,70.10
2023-03-16T02:39:34.765Z,70.30
2023-03-16T02:42:02.506Z,70.30
2023-03-16T02:44:35.031Z,70.10
2023-03-16T02:47:09.970Z,70.40
2023-03-16T02:49:39.807Z,70.30
2023-03-16T02:52:07.805Z,70.30
2023-03-16T02:54:35.213Z,70.50
2023-03-16T02:57:02.590Z,70.20
2023-03-16T02:59:31.433Z,70.50
2023-03-16T03:01:58.774Z,70.60
2023-03-16T03:04:27.351Z,70.40
2023-03-16T03:06:54.589Z,70.50
2023-03-16T03:09:21.953Z,70.80
2023-03-16T03:11:53.770Z,70.70
2023-03-16T03:14:21.780Z,70.90
2023-03-16T03:16:52.136Z,71.00
2023-03-16T03:19:19.462Z,70.90
2023-03-16T03:21:48.023Z,71.00
2023-03-16T03:24:15.225Z,71.00
2023-03-16T03:26:44.931Z,70.80
2023-03-16T03:29:18.176Z,70.90
2023-03-16T03:31:45.452Z,70.90
2023-03-16T03:34:13.423Z,70.90
2023-03-16T03:36:41.449Z,70.80
2023-03-16T03:39:10.169Z,70.90
2023-03-16T03:41:37.691Z,71.10
2023-03-16T03:44:06.862Z,71.10
2023-03-16T03:46:35.619Z,71.00
2023-03-16T03:49:05.238Z,71.10
2023-03-16T03:51:35.044Z,71.30
2023-03-16T03:54:10.458Z,71.50
2023-03-16T03:56:48.776Z,71.60
2023-03-16T03:59:17.320Z,71.40
2023-03-16T04:02:04.607Z,71.40
2023-03-16T04:04:45.962Z,71.50
2023-03-16T04:07:14.226Z,71.40
2023-03-16T04:09:45.106Z,71.30
2023-03-16T04:12:22.396Z,71.50
2023-03-16T04:14:49.762Z,71.30
2023-03-16T04:17:17.707Z,71.50
2023-03-16T04:19:45.905Z,71.50
2023-03-16T04:22:16.338Z,71.60
2023-03-16T04:24:45.180Z,71.50
2023-03-16T04:27:14.003Z,71.40
2023-03-16T04:29:41.245Z,71.50
2023-03-16T04:32:09.164Z,71.40
2023-03-16T04:34:36.845Z,71.20
2023-03-16T04:37:06.323Z,71.50
2023-03-16T04:39:36.075Z,71.10
2023-03-16T04:42:06.160Z,71.20
2023-03-16T04:44:33.393Z,71.40
2023-03-16T04:47:00.654Z,71.30
2023-03-16T04:49:35.587Z,71.50
2023-03-16T04:52:02.877Z,71.30
2023-03-16T04:54:30.414Z,71.20
2023-03-16T04:56:58.005Z,71.10
2023-03-16T04:59:33.156Z,71.10
2023-03-16T05:02:12.088Z,71.10
2023-03-16T05:04:39.612Z,71.00
2023-03-16T05:07:10.116Z,70.70
2023-03-16T05:09:39.736Z,70.50
2023-03-16T05:12:08.049Z,70.70
2023-03-16T05:14:37.241Z,70.60
2023-03-16T05:17:15.630Z,70.80
2023-03-16T05:19:45.470Z,70.60
2023-03-16T05:22:13.804Z,71.20
2023-03-16T05:24:54.273Z,71.20
2023-03-16T05:27:21.586Z,71.50
2023-03-16T05:29:50.432Z,71.70
2023-03-16T05:32:17.711Z,71.30
2023-03-16T05:34:46.959Z,71.30
2023-03-16T05:37:14.201Z,71.10
2023-03-16T05:39:41.438Z,71.10
2023-03-16T05:42:08.907Z,71.30
2023-03-16T05:44:50.021Z,70.90
2023-03-16T05:47:26.743Z,70.80
2023-03-16T05:49:57.244Z,70.90
2023-03-16T05:52:39.483Z,70.80
2023-03-16T05:55:15.276Z,70.90
2023-03-16T05:57:47.695Z,71.00
2023-03-16T06:00:18.321Z,70.90
2023-03-16T06:02:52.494Z,70.90
2023-03-16T06:05:21.956Z,70.60
2023-03-16T06:07:50.138Z,70.50
2023-03-16T06:10:18.452Z,70.50
2023-03-16T06:12:45.930Z,70.70
2023-03-16T06:15:13.796Z,70.60
2023-03-16T06:17:42.424Z,70.90
2023-03-16T06:20:12.983Z,70.90
2023-03-16T06:22:42.934Z,71.10
2023-03-16T06:25:12.190Z,71.20
2023-03-16T06:27:40.230Z,71.20
2023-03-16T06:30:13.573Z,71.20
2023-03-16T06:32:42.966Z,71.40
2023-03-16T06:35:10.312Z,71.50
2023-03-16T06:37:41.124Z,71.40
2023-03-16T06:40:23.313Z,71.20
2023-03-16T06:42:51.456Z,71.20
2023-03-16T06:45:22.173Z,71.20
2023-03-16T06:47:51.868Z,71.40
2023-03-16T06:50:19.316Z,71.50
2023-03-16T06:52:46.553Z,71.30
2023-03-16T06:55:14.500Z,71.30
2023-03-16T06:57:45.564Z,71.00
2023-03-16T07:00:15.495Z,70.70
2023-03-16T07:02:43.714Z,70.20
2023-03-16T07:05:13.952Z,69.60
2023-03-16T07:07:42.731Z,69.20
2023-03-16T07:10:11.561Z,68.70
2023-03-16T07:12:38.858Z,68.40
2023-03-16T07:15:06.951Z,67.70
2023-03-16T07:17:34.344Z,67.60
2023-03-16T07:20:05.767Z,67.40
2023-03-16T07:22:35.067Z,66.60
2023-03-16T07:25:02.648Z,66.80
2023-03-16T07:27:31.214Z,66.20
2023-03-16T07:30:00.871Z,65.40
2023-03-16T07:32:28.118Z,64.50
2023-03-16T07:34:59.177Z,64.20
2023-03-16T07:37:28.068Z,64.00
2023-03-16T07:39:59.560Z,64.30
2023-03-16T07:42:26.826Z,63.10
2023-03-16T07:45:03.805Z,63.10
2023-03-16T07:47:31.580Z,61.70
2023-03-16T07:50:03.657Z,61.50
2023-03-16T07:52:31.887Z,60.40
2023-03-16T07:55:00.395Z,59.30
2023-03-16T07:57:27.699Z,60.20
2023-03-16T07:59:55.176Z,60.90
2023-03-16T08:02:22.630Z,59.60
2023-03-16T08:04:50.376Z,60.30
2023-03-16T08:07:18.550Z,58.90
2023-03-16T08:09:58.010Z,58.80
2023-03-16T08:12:33.717Z,57.00
2023-03-16T08:15:01.833Z,57.60
2023-03-16T08:17:32.044Z,57.30
2023-03-16T08:20:01.296Z,56.50
2023-03-16T08:22:29.981Z,55.80
2023-03-16T08:24:57.425Z,55.70
2023-03-16T08:27:25.963Z,56.60
2023-03-16T08:30:04.772Z,55.60
2023-03-16T08:32:34.388Z,54.50
2023-03-16T08:35:01.645Z,55.60
2023-03-16T08:37:29.086Z,53.80
2023-03-16T08:40:00.322Z,54.60
2023-03-16T08:42:31.312Z,54.10
2023-03-16T08:45:11.629Z,52.00
2023-03-16T08:47:40.518Z,51.60
2023-03-16T08:50:09.799Z,51.90
2023-03-16T08:52:37.034Z,50.10
2023-03-16T08:55:05.768Z,49.30
2023-03-16T08:57:33.470Z,50.50
2023-03-16T09:00:01.295Z,47.90
2023-03-16T09:02:29.843Z,49.90
2023-03-16T09:04:57.052Z,47.70
2023-03-16T09:07:24.282Z,47.20
2023-03-16T09:09:51.562Z,46.80
2023-03-16T09:12:20.564Z,48.10
2023-03-16T09:14:48.905Z,45.80
2023-03-16T09:17:16.140Z,42.30
2023-03-16T09:19:54.344Z,43.00
2023-03-16T09:22:23.259Z,43.30
2023-03-16T09:24:51.197Z,40.80
2023-03-16T09:27:18.828Z,42.00
2023-03-16T09:29:46.646Z,40.40
2023-03-16T09:32:14.341Z,39.90
2023-03-16T09:34:42.042Z,38.50
2023-03-16T09:37:10.877Z,38.80
2023-03-16T09:39:38.332Z,36.80
2023-03-16T09:42:14.101Z,37.40
2023-03-16T09:44:54.124Z,38.40
2023-03-16T09:47:26.435Z,37.40
2023-03-16T09:49:59.997Z,36.50
2023-03-16T09:52:38.290Z,37.30
2023-03-16T09:55:11.973Z,35.70
2023-03-16T09:57:41.719Z,37.90
2023-03-16T10:00:17.306Z,34.70
2023-03-16T10:02:56.218Z,34.60
2023-03-16T10:05:24.802Z,34.00
2023-03-16T10:08:03.763Z,33.00
2023-03-16T10:10:57.713Z,34.10
2023-03-16T10:13:34.938Z,34.10
2023-03-16T10:16:07.664Z,34.70
2023-03-16T10:18:41.589Z,34.50
2023-03-16T10:21:13.222Z,33.20
2023-03-16T10:23:43.191Z,32.70
2023-03-16T10:26:14.650Z,32.00
2023-03-16T10:28:43.004Z,33.40
2023-03-16T10:31:11.912Z,31.70
2023-03-16T10:33:39.568Z,30.40
2023-03-16T10:36:15.585Z,31.00
2023-03-16T10:38:46.847Z,29.60
2023-03-16T10:41:25.973Z,27.50
2023-03-16T10:43:55.624Z,28.90
2023-03-16T10:46:24.910Z,29.30
2023-03-16T10:48:54.947Z,30.80
2023-03-16T10:51:26.197Z,30.70
2023-03-16T10:54:01.593Z,28.30
2023-03-16T10:56:34.436Z,30.30
2023-03-16T10:59:02.822Z,28.00
2023-03-16T11:01:31.890Z,30.40
2023-03-16T11:03:59.243Z,28.20
2023-03-16T11:06:30.645Z,28.90
2023-03-16T11:09:08.645Z,28.30
2023-03-16T11:11:37.473Z,28.50
2023-03-16T11:14:12.784Z,27.70
2023-03-16T11:16:44.341Z,28.50
2023-03-16T11:19:18.933Z,28.70
2023-03-16T11:21:54.742Z,29.30
2023-03-16T11:24:29.761Z,26.90
2023-03-16T11:27:00.745Z,26.30
2023-03-16T11:29:39.960Z,27.00
2023-03-16T11:32:15.251Z,28.10
2023-03-16T11:34:44.365Z,26.50
2023-03-16T11:37:22.598Z,27.10
2023-03-16T11:39:58.407Z,26.60
2023-03-16T11:42:33.426Z,26.50
2023-03-16T11:45:10.922Z,27.90
2023-03-16T11:48:06.691Z,26.20
2023-03-16T11:50:43.224Z,28.70
2023-03-16T11:53:18.277Z,26.50
2023-03-16T11:55:58.007Z,25.70
2023-03-16T11:58:40.881Z,26.40
2023-03-16T12:01:15.107Z,27.90
2023-03-16T12:03:55.116Z,27.10
2023-03-16T12:06:30.655Z,26.80
2023-03-16T12:09:30.774Z,27.80
2023-03-16T12:12:05.767Z,29.20
2023-03-16T12:14:40.126Z,29.50
2023-03-16T12:17:13.362Z,28.00
2023-03-16T12:19:45.660Z,28.20
2023-03-16T12:22:19.945Z,26.70
2023-03-16T12:24:48.045Z,27.00
2023-03-16T12:27:22.568Z,28.30
2023-03-16T12:29:57.690Z,27.30
2023-03-16T12:32:36.465Z,26.50
2023-03-16T12:35:17.597Z,25.60
2023-03-16T12:37:54.744Z,26.00
2023-03-16T12:40:32.746Z,26.20
2023-03-16T12:43:12.211Z,25.20
2023-03-16T12:45:46.800Z,27.00
2023-03-16T12:48:25.088Z,28.00
2023-03-16T12:50:55.665Z,27.00
2023-03-16T12:53:28.498Z,28.00
2023-03-16T12:55:57.267Z,27.00
2023-03-16T12:58:27.534Z,26.80
2023-03-16T13:00:57.978Z,25.60
2023-03-16T13:03:26.009Z,27.90
2023-03-16T13:05:55.586Z,26.50
2023-03-16T13:08:23.469Z,25.40
2023-03-16T13:11:02.198Z,27.00
2023-03-16T13:13:32.713Z,24.40
2023-03-16T13:16:06.899Z,25.00
2023-03-16T13:18:36.771Z,24.30
2023-03-16T13:21:16.166Z,24.90
2023-03-16T13:23:54.322Z,24.60
2023-03-16T13:26:34.564Z,23.90
2023-03-16T13:29:18.598Z,25.10
2023-03-16T13:31:46.056Z,24.70
2023-03-16T13:34:19.482Z,24.20
2023-03-16T13:36:47.100Z,25.10
2023-03-16T13:39:17.372Z,25.30
2023-03-16T13:41:55.990Z,24.00
2023-03-16T13:44:25.185Z,24.10
2023-03-16T13:46:52.589Z,24.20
2023-03-16T13:49:20.411Z,23.30
2023-03-16T13:51:48.470Z,24.90
2023-03-16T13:54:24.505Z,24.50
2023-03-16T13:56:53.201Z,23.20
2023-03-16T13:59:21.956Z,23.90
2023-03-16T14:01:57.894Z,24.50
2023-03-16T14:04:28.685Z,24.50
2023-03-16T14:06:58.315Z,23.00
2023-03-16T14:09:28.646Z,24.90
2023-03-16T14:11:57.661Z,24.10
2023-03-16T14:14:29.119Z,23.80
2023-03-16T14:17:05.167Z,23.30
2023-03-16T14:19:45.746Z,22.70
2023-03-16T14:22:15.318Z,23.10
2023-03-16T14:24:44.276Z,22.00
2023-03-16T14:27:26.613Z,21.30
2023-03-16T14:29:58.894Z,22.70
2023-03-16T14:32:29.503Z,22.30
2023-03-16T14:35:15.111Z,23.20
2023-03-16T14:37:43.597Z,22.70
2023-03-16T14:40:28.486Z,23.20
2023-03-16T14:42:58.599Z,25.30
2023-03-16T14:45:31.631Z,23.80
2023-03-16T14:48:05.498Z,23.20
2023-03-16T14:50:34.498Z,23.20
2023-03-16T14:53:03.779Z,22.50
2023-03-16T14:55:31.561Z,24.10
2023-03-16T14:57:59.031Z,22.10
2023-03-16T15:00:26.556Z,22.10
2023-03-16T15:03:00.788Z,22.70
2023-03-16T15:05:35.290Z,22.20
2023-03-16T15:08:05.707Z,23.40
2023-03-16T15:10:35.261Z,23.00
2023-03-16T15:13:13.032Z,23.50
2023-03-16T15:15:43.881Z,23.00
2023-03-16T15:18:11.172Z,22.70
2023-03-16T15:20:43.317Z,22.40
2023-03-16T15:23:14.840Z,23.00
2023-03-16T15:25:43.192Z,22.60
2023-03-16T15:28:14.390Z,22.30
2023-03-16T15:30:42.101Z,21.70
2023-03-16T15:33:09.877Z,22.60
2023-03-16T15:35:37.943Z,23.60
2023-03-16T15:38:11.698Z,22.90
2023-03-16T15:40:41.581Z,23.50
2023-03-16T15:43:11.274Z,24.80
2023-03-16T15:45:38.558Z,24.10
2023-03-16T15:48:07.052Z,24.70
2023-03-16T15:50:35.398Z,24.10
2023-03-16T15:53:09.108Z,24.20
2023-03-16T15:55:39.077Z,24.10
2023-03-16T15:58:10.542Z,24.90
2023-03-16T16:00:39.485Z,24.40
2023-03-16T16:03:07.344Z,25.10
2023-03-16T16:05:34.601Z,24.60
2023-03-16T16:08:02.001Z,24.50
2023-03-16T16:10:30.859Z,24.50
2023-03-16T16:12:59.054Z,25.80
2023-03-16T16:15:29.427Z,25.10
2023-03-16T16:18:19.677Z,24.30
2023-03-16T16:20:45.239Z,25.80
2023-03-16T16:23:12.646Z,26.40
2023-03-16T16:25:42.359Z,25.90
2023-03-16T16:28:15.077Z,26.20
2023-03-16T16:30:42.769Z,27.00
2023-03-16T16:33:22.027Z,26.60
2023-03-16T16:35:49.321Z,26.90
2023-03-16T16:38:16.559Z,27.40
2023-03-16T16:40:46.265Z,28.10
2023-03-16T16:43:24.357Z,27.70
2023-03-16T16:45:51.863Z,28.20
2023-03-16T16:48:29.125Z,28.80
2023-03-16T16:50:56.633Z,28.30
2023-03-16T16:53:24.569Z,28.40
2023-03-16T16:55:53.458Z,28.30
2023-03-16T16:58:24.548Z,30.00
2023-03-16T17:00:55.459Z,29.40
2023-03-16T17:03:24.974Z,29.00
2023-03-16T17:05:52.794Z,29.30
2023-03-16T17:08:20.189Z,29.80
2023-03-16T17:10:47.955Z,30.50
2023-03-16T17:13:26.264Z,30.40
2023-03-16T17:15:54.869Z,29.70
2023-03-16T17:18:22.179Z,30.50
2023-03-16T17:20:50.715Z,30.80
2023-03-16T17:23:29.267Z,31.90
2023-03-16T17:25:59.238Z,31.80
2023-03-16T17:28:29.614Z,32.10
2023-03-16T17:30:57.112Z,31.60
2023-03-16T17:33:27.302Z,31.90
2023-03-16T17:35:55.071Z,32.10
2023-03-16T17:38:23.612Z,32.00
2023-03-16T17:40:52.520Z,32.50
2023-03-16T17:43:21.883Z,32.00
2023-03-16T17:45:52.276Z,32.30
2023-03-16T17:48:21.011Z,32.00
2023-03-16T17:50:48.918Z,32.30
2023-03-16T17:53:18.175Z,32.70
2023-03-16T17:55:46.764Z,33.10
2023-03-16T17:58:24.038Z,33.50
2023-03-16T18:00:53.136Z,32.60
2023-03-16T18:03:21.580Z,33.00
2023-03-16T18:05:48.903Z,33.20
2023-03-16T18:08:17.742Z,33.10
2023-03-16T18:10:47.267Z,33.60
2023-03-16T18:13:19.114Z,32.70
2023-03-16T18:15:47.602Z,33.30
2023-03-16T18:18:20.471Z,32.60
2023-03-16T18:20:48.661Z,33.20
2023-03-16T18:23:18.666Z,34.10
2023-03-16T18:25:46.882Z,33.20
2023-03-16T18:28:14.704Z,33.40
2023-03-16T18:30:44.067Z,33.10
2023-03-16T18:33:23.641Z,33.90
2023-03-16T18:35:53.003Z,33.60
2023-03-16T18:38:27.526Z,33.60
2023-03-16T18:40:54.753Z,33.30
2023-03-16T18:43:21.944Z,34.10
2023-03-16T18:45:49.940Z,34.60
2023-03-16T18:48:23.327Z,34.50
2023-03-16T18:50:51.014Z,34.70
2023-03-16T18:53:19.165Z,34.30
2023-03-16T18:55:46.376Z,34.80
2023-03-16T18:58:19.156Z,35.00
2023-03-16T19:00:50.523Z,34.00
2023-03-16T19:03:25.565Z,34.60
2023-03-16T19:05:53.898Z,33.70
2023-03-16T19:08:21.435Z,34.50
2023-03-16T19:10:51.489Z,38.30
2023-03-16T19:13:21.487Z,36.60
2023-03-16T19:15:49.534Z,35.30
2023-03-16T19:18:16.917Z,35.30
2023-03-16T19:20:50.050Z,35.20
2023-03-16T19:23:21.734Z,34.60
2023-03-16T19:25:50.391Z,35.90
2023-03-16T19:28:25.354Z,35.00
2023-03-16T19:30:52.610Z,34.90
2023-03-16T19:33:22.574Z,35.70
2023-03-16T19:35:52.722Z,35.10
2023-03-16T19:38:20.513Z,35.40
2023-03-16T19:40:49.144Z,35.20
2023-03-16T19:43:18.412Z,35.60
2023-03-16T19:45:46.822Z,35.70
2023-03-16T19:48:16.557Z,35.80
2023-03-16T19:50:43.832Z,36.40
2023-03-16T19:53:17.362Z,36.10
2023-03-16T19:55:47.147Z,36.10
2023-03-16T19:58:23.529Z,35.40
2023-03-16T20:00:51.059Z,36.00
2023-03-16T20:03:18.644Z,36.20
2023-03-16T20:05:45.864Z,36.60
2023-03-16T20:08:21.174Z,36.40
2023-03-16T20:10:49.281Z,36.40
2023-03-16T20:13:16.726Z,36.40
2023-03-16T20:15:45.862Z,37.10
2023-03-16T20:18:15.128Z,36.50
2023-03-16T20:20:43.332Z,36.60
2023-03-16T20:23:21.234Z,36.90
2023-03-16T20:25:49.283Z,36.70
2023-03-16T20:28:19.764Z,36.80
2023-03-16T20:30:48.219Z,37.40
2023-03-16T20:33:20.406Z,37.00
2023-03-16T20:35:49.466Z,37.40
2023-03-16T20:38:18.045Z,37.20
2023-03-16T20:40:47.428Z,37.60
2023-03-16T20:43:26.401Z,38.20
2023-03-16T20:45:55.513Z,37.50
2023-03-16T20:48:25.408Z,37.80
2023-03-16T20:50:53.351Z,37.70
2023-03-16T20:53:22.598Z,38.60
2023-03-16T20:55:52.086Z,38.30
2023-03-16T20:58:22.077Z,38.10
2023-03-16T21:00:50.845Z,38.30
2023-03-16T21:03:20.666Z,38.60
2023-03-16T21:05:48.696Z,39.00
2023-03-16T21:08:16.604Z,39.00
2023-03-16T21:10:47.471Z,39.10
2023-03-16T21:13:20.658Z,39.50
2023-03-16T21:15:50.653Z,39.70
2023-03-16T21:18:20.588Z,39.80
2023-03-16T21:20:48.943Z,39.80
2023-03-16T21:23:18.163Z,40.00
2023-03-16T21:25:49.190Z,40.20
2023-03-16T21:28:19.121Z,40.30
2023-03-16T21:30:47.803Z,40.70
2023-03-16T21:33:19.887Z,40.50
2023-03-16T21:35:47.184Z,40.60
2023-03-16T21:38:17.238Z,40.70
2023-03-16T21:40:45.872Z,40.90
2023-03-16T21:43:14.826Z,41.10
2023-03-16T21:45:42.731Z,41.30
2023-03-16T21:48:15.489Z,41.40
2023-03-16T21:50:44.003Z,41.50
2023-03-16T21:53:22.019Z,41.90
2023-03-16T21:55:49.935Z,42.10
2023-03-16T21:58:18.989Z,42.40
2023-03-16T22:00:47.004Z,42.60
2023-03-16T22:03:24.676Z,42.80
2023-03-16T22:05:53.181Z,43.10
2023-03-16T22:08:22.294Z,43.30
2023-03-16T22:10:50.574Z,43.40
2023-03-16T22:13:19.191Z,43.60
2023-03-16T22:15:48.462Z,44.00
2023-03-16T22:18:28.097Z,44.20
2023-03-16T22:20:56.804Z,44.20
2023-03-16T22:23:29.744Z,44.40
2023-03-16T22:25:57.130Z,44.60
2023-03-16T22:28:26.360Z,44.50
2023-03-16T22:30:56.704Z,44.70
2023-03-16T22:33:28.246Z,44.90
2023-03-16T22:35:58.325Z,44.90
2023-03-16T22:38:26.276Z,45.00
2023-03-16T22:40:54.342Z,44.90
2023-03-16T22:43:28.418Z,45.10
2023-03-16T22:45:56.854Z,45.10
2023-03-16T22:48:26.488Z,45.00
2023-03-16T22:50:54.242Z,45.20
2023-03-16T22:53:26.015Z,45.30
2023-03-16T22:55:55.317Z,45.30
2023-03-16T22:58:28.992Z,45.20
2023-03-16T23:00:56.971Z,45.30
2023-03-16T23:03:24.998Z,45.40
2023-03-16T23:05:52.516Z,45.40
2023-03-16T23:08:22.802Z,45.60
2023-03-16T23:10:51.891Z,45.50
2023-03-16T23:13:24.063Z,45.60
2023-03-16T23:15:59.253Z,45.80
2023-03-16T23:18:26.868Z,45.70
2023-03-16T23:20:54.198Z,45.90
2023-03-16T23:23:21.772Z,46.20
2023-03-16T23:25:49.032Z,46.30
2023-03-16T23:28:20.736Z,46.60
2023-03-16T23:30:48.029Z,46.30
2023-03-16T23:33:16.687Z,46.40
2023-03-16T23:35:46.402Z,46.40
2023-03-16T23:38:13.796Z,46.50
2023-03-16T23:40:41.456Z,46.60
2023-03-16T23:43:09.090Z,46.90
2023-03-16T23:45:40.745Z,46.80
2023-03-16T23:48:13.214Z,46.90
2023-03-16T23:50:42.613Z,47.00
2023-03-16T23:53:14.250Z,47.00
2023-03-16T23:55:42.371Z,47.00
2023-03-16T23:58:10.770Z,47.20
